Horacio Trauco

Scout - Universitario
20 Nov 2027
Samstag
Verarbeitung

Persönlichkeit

Anpassungsfähigkeit (19) Ehrgeiz (13) Kontroverse (8) Loyalität (8) Druck (17) Professionalität (12) Fairness (20) Temperament (10)

Profil

Trainerstil Demokratisch
Lizenz Kontinentale Pro
Entschlossenheit 8
Menschenführung 4
Motivation 9
Disziplin 6
Arbeitszufriedenheit
100%
Ermüdung
0%
Rolle Scout
Gehalt 38.3K p/W
Vertrag 14.03.2028

Leistung

Verhalten Gut
Trainingseffektivität
31%
Spielerentwicklung
55%
Verletzungsprävention
55%
Taktische Umsetzung
55%

Letzte Ereignisse

Spieler begutachtet jetzt
Nahm an einer Scouting-Besprechung teil jetzt
Empfahl ein Transferziel 7T her
Spieler begutachtet 7T her
Spieler begutachtet 7T her
Spieler begutachtet 7T her
Spieler begutachtet 7T her
Spieler begutachtet 7T her

Aktuell beobachtet

73
Spieler Verein Status Fähigkeit Vertrauen Beobachtet Zuletzt beobachtet Letzte Stimme
Jean Carlos Pestaña Junior Aktiv 126 / 120 40% 3 17.11.2027 -
Santiago Longo Belgrano Aktiv 129 / 128 40% 1 17.11.2027 -
Oscar Salomón Newell's Old Boys Aktiv 125 / 120 40% 3 15.11.2027 -
Carlos Mejia La Equidad Aktiv 114 / 118 40% 1 15.11.2027 -
Sasha Marcich Lanús Aktiv 117 / 127 40% 1 14.11.2027 -
Mateo Mendoza Godoy Cruz Aktiv 128 / 128 40% 6 12.11.2027 -
Marcos López San Martín Aktiv 130 / 130 40% 1 12.11.2027 -
Federico Navarro Rosario Central Aktiv 139 / 127 40% 2 11.11.2027 -
Mateo Castillo Real Cartagena Aktiv 118 / 124 40% 2 11.11.2027 -
Gastón Benedetti Estudiantes Aktiv 130 / 129 40% 2 10.11.2027 -
Jan Carlos Ángulo Deportes Tolima Aktiv 123 / 120 40% 1 09.11.2027 -
Franco Díaz Temperley Aktiv 130 / 125 40% 2 06.11.2027 -
Mateo Garavito Deportivo Pasto Aktiv 119 / 120 40% 1 06.11.2027 -
Anderson Angulo Deportes Tolima Aktiv 131 / 121 40% 1 03.11.2027 -
Adrián Sánchez Junior Aktiv 126 / 124 40% 1 03.11.2027 -
Yhormar Hurtado Atletico Bucaramanga Aktiv 121 / 118 40% 1 31.10.2027 -
Alejo Tabares All Boys Aktiv 127 / 119 40% 1 31.10.2027 -
Augusto Schott Talleres Aktiv 115 / 125 40% 2 29.10.2027 -
Gianluca Ferrari Atlético Tucumán Aktiv 132 / 122 40% 1 29.10.2027 -
Lucas Arce Godoy Cruz Aktiv 123 / 124 40% 2 28.10.2027 -
Gastón Hernández San Lorenzo Aktiv 129 / 124 40% 1 27.10.2027 -
Fernando Martínez Central Córdoba SdE Aktiv 130 / 120 40% 4 24.10.2027 -
Lucas Carrizo Newell's Old Boys Aktiv 136 / 124 40% 1 24.10.2027 -
Emanuel Coronel Rosario Central Aktiv 129 / 129 40% 2 23.10.2027 -
Franco Ibarra Rosario Central Aktiv 132 / 127 40% 1 18.10.2027 -
Tomás Escalante Plaza Colonia Aktiv 127 / 120 40% 3 17.10.2027 -
Lucas Souto Defensa y Justicia Aktiv 135 / 125 40% 1 17.10.2027 -
Lucas Agazzi Defensor Sporting Aktiv 115 / 121 40% 2 15.10.2027 -
Alexis Steimbach Gimnasia La Plata Aktiv 118 / 118 40% 3 11.10.2027 -
Jean Pierre Rosso Liverpool Montevideo Aktiv 117 / 119 40% 2 11.10.2027 -
Elías López Aldosivi Aktiv 117 / 119 40% 1 07.10.2027 -
Joaquín García Vélez Aktiv 134 / 127 40% 2 04.10.2027 -
Manuel Insaurralde San Lorenzo Aktiv 124 / 115 40% 1 04.10.2027 -
Bruno Leyes Godoy Cruz Aktiv 118 / 130 40% 1 01.10.2027 -
Gonzalo Abrego Godoy Cruz Aktiv 125 / 127 40% 1 28.09.2027 -
Aarón Quiros Vélez Aktiv 131 / 125 40% 1 26.09.2027 -
Emiliano Álvarez Progreso Aktiv 115 / 122 40% 1 17.09.2027 -
Ignacio Vázquez Platense Aktiv 138 / 131 40% 1 08.09.2027 -
Eryc Castillo Alianza Lima Verloren 122 / 115 62% 1 28.06.2027 -
Marquinhos Spartak Moscow Aktiv 133 / 125 40% 1 14.12.2026 -
Claudio Núñez Cienciano Aktiv 108 / 107 62% 1 04.12.2026 Befürworten
Manu Nieto Andorra Aktiv 112 / 110 40% 1 26.11.2026 -
Camilo Durán Bloemfontein Celtic Aktiv 131 / 126 40% 5 20.11.2026 -
Sam Nombe Milton Keynes Dons Aktiv 121 / 116 40% 1 20.11.2026 -
Sandi Elsnik NK Domzale Aktiv 102 / 110 40% 1 17.11.2026 -
Jan Hubocan Ferencvaros Aktiv 115 / 130 40% 1 12.11.2026 -
Xavier Biscayzacú Sporting CP Aktiv 127 / 129 40% 1 09.11.2026 -
Brayan Gil Baltika Aktiv 106 / 122 40% 2 04.11.2026 -
Marcos Camarda Santiago Wanderers Aktiv 99 / 111 40% 3 29.10.2026 -
Adalberto Peñaranda Deportivo Tachira Aktiv 114 / 115 40% 1 28.10.2026 -
Lautaro Quiroga Defensa y Justicia Aktiv 96 / 107 40% 1 19.10.2026 -
Benito Paklayan Alvarado Aktiv 78 / 93 40% 1 17.10.2026 -
Tomás Jung Atlético Tucumán Aktiv 82 / 92 40% 1 17.10.2026 -
Oscar Osorio Atletico Venezuela Aktiv 111 / 113 40% 1 06.10.2026 -
Alexei Dominguez Pachuca Aktiv 110 / 112 40% 2 05.10.2026 -
Ramiro Ruiz Rodríguez Atlético Tucumán Aktiv 112 / 122 40% 2 28.09.2026 -
Isaac Matondo Koper Aktiv 95 / 100 40% 1 28.09.2026 -
Oscar Ferraresi Llaneros Aktiv 113 / 105 40% 1 26.09.2026 -
Troy Parrott Betis Aktiv 141 / 146 40% 2 23.09.2026 -
Tamerlan Musaev CSKA Moscow Aktiv 126 / 117 40% 1 21.09.2026 -
Lucas González Nacional Aktiv 98 / 113 40% 1 20.09.2026 -
Erik Botheim Viking Aktiv 139 / 125 40% 1 12.09.2026 -
Ola Brynhildsen Bodo/Glimt Aktiv 119 / 131 40% 1 12.09.2026 -
Luis Iberico Sporting Cristal Aktiv 122 / 110 40% 1 09.09.2026 -
Martín Korsunsky San Lorenzo Aktiv 78 / 90 40% 1 07.09.2026 -
Agustín Seyral Sarmiento Aktiv 101 / 105 40% 1 07.09.2026 -
Enzo Larrosa Independiente Medellin Aktiv 101 / 109 40% 1 29.08.2026 -
Dávid Ďuriš Rosenborg Aktiv 115 / 110 40% 1 21.08.2026 -
Chuchu Ramírez Nacional Aktiv 146 / 120 40% 1 13.08.2026 -
Etiosa Ighodaro Kaizer Chiefs Aktiv 93 / 101 40% 1 09.08.2026 -
Marcelo Torres Gimnasia La Plata Aktiv 113 / 120 40% 1 07.08.2026 -
Fabricio Rojas Gimnasia y Tiro Aktiv 108 / 111 40% 1 06.08.2026 -
Ignacio Sabatini Gimnasia y Esgrima Aktiv 103 / 105 40% 1 06.08.2026 -